createdAt,value
2023-04-29T00:00:43.209Z,30.71
2023-04-29T00:03:03.026Z,30.67
2023-04-29T00:05:16.379Z,30.66
2023-04-29T00:07:29.123Z,30.66
2023-04-29T00:09:41.729Z,30.66
2023-04-29T00:11:54.359Z,30.66
2023-04-29T00:14:07.085Z,30.66
2023-04-29T00:16:19.812Z,30.64
2023-04-29T00:18:33.453Z,30.58
2023-04-29T00:20:46.583Z,30.52
2023-04-29T00:22:59.700Z,30.41
2023-04-29T00:25:14.104Z,30.34
2023-04-29T00:27:27.144Z,30.30
2023-04-29T00:29:39.566Z,30.29
2023-04-29T00:31:52.085Z,30.27
2023-04-29T00:34:04.500Z,30.18
2023-04-29T00:36:17.168Z,30.12
2023-04-29T00:38:29.877Z,30.09
2023-04-29T00:40:42.826Z,30.04
2023-04-29T00:42:55.905Z,29.99
2023-04-29T00:45:09.111Z,29.93
2023-04-29T00:47:21.701Z,29.89
2023-04-29T00:49:34.815Z,29.86
2023-04-29T00:51:48.410Z,29.84
2023-04-29T00:54:02.234Z,29.81
2023-04-29T00:56:16.104Z,29.80
2023-04-29T00:58:34.123Z,29.80
2023-04-29T01:00:48.342Z,29.77
2023-04-29T01:03:04.629Z,29.76
2023-04-29T01:05:19.012Z,29.74
2023-04-29T01:07:41.112Z,29.71
2023-04-29T01:10:05.246Z,29.67
2023-04-29T01:12:24.473Z,29.60
2023-04-29T01:14:39.954Z,29.53
2023-04-29T01:17:00.221Z,29.44
2023-04-29T01:19:32.644Z,29.37
2023-04-29T01:21:53.908Z,29.30
2023-04-29T01:24:06.467Z,29.24
2023-04-29T01:26:20.174Z,29.21
2023-04-29T01:28:57.953Z,29.15
2023-04-29T01:31:18.717Z,29.11
2023-04-29T01:33:41.204Z,29.07
2023-04-29T01:36:02.557Z,29.07
2023-04-29T01:38:33.267Z,29.05
2023-04-29T01:40:57.826Z,29.01
2023-04-29T01:43:13.045Z,28.94
2023-04-29T01:45:31.091Z,28.85
2023-04-29T01:47:44.461Z,28.83
2023-04-29T01:49:57.528Z,28.77
2023-04-29T01:52:10.715Z,28.72
2023-04-29T01:54:25.094Z,28.68
2023-04-29T01:56:37.910Z,28.63
2023-04-29T01:58:58.920Z,28.59
2023-04-29T02:01:43.794Z,28.54
2023-04-29T02:03:56.602Z,28.53
2023-04-29T02:06:10.005Z,28.50
2023-04-29T02:08:22.842Z,28.47
2023-04-29T02:10:38.377Z,28.45
2023-04-29T02:13:09.089Z,28.44
2023-04-29T02:15:22.556Z,28.42
2023-04-29T02:17:36.984Z,28.39
2023-04-29T02:19:49.900Z,28.33
2023-04-29T02:22:05.380Z,28.30
2023-04-29T02:24:18.108Z,28.25
2023-04-29T02:26:34.815Z,28.18
2023-04-29T02:28:48.333Z,28.10
2023-04-29T02:31:02.725Z,28.02
2023-04-29T02:33:16.002Z,27.93
2023-04-29T02:35:28.796Z,27.83
2023-04-29T02:37:42.162Z,27.76
2023-04-29T02:39:55.235Z,27.64
2023-04-29T02:42:08.398Z,27.50
2023-04-29T02:44:21.742Z,27.36
2023-04-29T02:46:35.761Z,27.27
2023-04-29T02:48:49.092Z,27.20
2023-04-29T02:51:01.835Z,27.15
2023-04-29T02:53:14.471Z,27.06
2023-04-29T02:55:27.998Z,26.99
2023-04-29T02:57:43.296Z,26.93
2023-04-29T02:59:56.284Z,26.84
2023-04-29T03:02:09.723Z,26.74
2023-04-29T03:04:23.165Z,26.68
2023-04-29T03:06:36.046Z,26.61
2023-04-29T03:08:49.008Z,26.55
2023-04-29T03:11:01.583Z,26.47
2023-04-29T03:13:15.151Z,26.40
2023-04-29T03:15:29.498Z,26.31
2023-04-29T03:17:43.021Z,26.23
2023-04-29T03:19:55.647Z,26.16
2023-04-29T03:22:09.302Z,26.10
2023-04-29T03:24:22.122Z,26.03
2023-04-29T03:26:34.725Z,25.97
2023-04-29T03:28:48.865Z,25.90
2023-04-29T03:31:02.113Z,25.82
2023-04-29T03:33:15.411Z,25.74
2023-04-29T03:35:27.991Z,25.70
2023-04-29T03:38:16.102Z,25.62
2023-04-29T03:40:28.988Z,25.55
2023-04-29T03:42:41.805Z,25.49
2023-04-29T03:44:54.435Z,25.44
2023-04-29T03:47:07.871Z,25.38
2023-04-29T03:49:20.629Z,25.32
2023-04-29T03:51:33.561Z,25.26
2023-04-29T03:53:52.871Z,25.21
2023-04-29T03:56:05.507Z,25.15
2023-04-29T03:58:17.912Z,25.09
2023-04-29T04:00:32.313Z,25.04
2023-04-29T04:02:45.809Z,24.99
2023-04-29T04:05:00.138Z,25.00
2023-04-29T04:07:12.995Z,24.98
2023-04-29T04:09:45.232Z,24.93
2023-04-29T04:11:58.279Z,24.87
2023-04-29T04:14:11.128Z,24.83
2023-04-29T04:16:23.536Z,24.80
2023-04-29T04:18:37.719Z,24.76
2023-04-29T04:20:50.553Z,24.72
2023-04-29T04:23:04.206Z,24.67
2023-04-29T04:25:18.477Z,24.64
2023-04-29T04:27:31.503Z,24.60
2023-04-29T04:29:45.798Z,24.58
2023-04-29T04:32:06.504Z,24.54
2023-04-29T04:34:19.906Z,24.50
2023-04-29T04:36:35.764Z,24.45
2023-04-29T04:38:48.301Z,24.40
2023-04-29T04:41:00.789Z,24.35
2023-04-29T04:43:20.260Z,24.29
2023-04-29T04:45:34.235Z,24.23
2023-04-29T04:47:48.201Z,24.20
2023-04-29T04:50:07.194Z,24.14
2023-04-29T04:52:19.830Z,24.09
2023-04-29T04:54:36.145Z,24.04
2023-04-29T04:56:58.357Z,23.97
2023-04-29T04:59:11.158Z,23.92
2023-04-29T05:01:24.330Z,23.89
2023-04-29T05:03:37.953Z,23.85
2023-04-29T05:05:56.075Z,23.82
2023-04-29T05:08:09.491Z,23.76
2023-04-29T05:10:28.081Z,23.71
2023-04-29T05:12:41.883Z,23.66
2023-04-29T05:14:58.548Z,23.60
2023-04-29T05:17:12.564Z,23.55
2023-04-29T05:19:25.674Z,23.51
2023-04-29T05:21:38.761Z,23.46
2023-04-29T05:23:51.251Z,23.42
2023-04-29T05:26:03.754Z,23.39
2023-04-29T05:28:16.611Z,23.37
2023-04-29T05:30:29.887Z,23.34
2023-04-29T05:32:42.757Z,23.31
2023-04-29T05:34:57.834Z,23.25
2023-04-29T05:37:10.353Z,23.24
2023-04-29T05:39:33.558Z,23.19
2023-04-29T05:41:53.632Z,23.16
2023-04-29T05:44:19.459Z,23.12
2023-04-29T05:46:31.967Z,23.09
2023-04-29T05:48:44.863Z,23.07
2023-04-29T05:50:58.082Z,23.05
2023-04-29T05:53:10.920Z,23.01
2023-04-29T05:55:23.961Z,22.99
2023-04-29T05:57:36.494Z,22.96
2023-04-29T05:59:49.188Z,22.96
2023-04-29T06:02:01.709Z,22.93
2023-04-29T06:04:15.391Z,22.89
2023-04-29T06:06:47.188Z,22.84
2023-04-29T06:09:23.835Z,22.78
2023-04-29T06:11:37.665Z,22.71
2023-04-29T06:13:50.339Z,22.63
2023-04-29T06:16:03.619Z,22.56
2023-04-29T06:18:18.763Z,22.51
2023-04-29T06:20:31.171Z,22.45
2023-04-29T06:22:44.602Z,22.41
2023-04-29T06:24:57.186Z,22.41
2023-04-29T06:27:23.170Z,22.39
2023-04-29T06:29:36.058Z,22.36
2023-04-29T06:31:48.647Z,22.31
2023-04-29T06:34:01.290Z,22.26
2023-04-29T06:36:14.346Z,22.23
2023-04-29T06:38:48.177Z,22.20
2023-04-29T06:41:26.893Z,22.15
2023-04-29T06:43:56.992Z,22.12
2023-04-29T06:46:30.189Z,22.06
2023-04-29T06:49:02.186Z,22.03
2023-04-29T06:51:19.170Z,22.00
2023-04-29T06:53:31.575Z,21.97
2023-04-29T06:55:43.981Z,21.97
2023-04-29T06:57:56.617Z,21.95
2023-04-29T07:00:09.932Z,21.95
2023-04-29T07:02:22.370Z,21.93
2023-04-29T07:04:34.860Z,21.92
2023-04-29T07:06:48.132Z,21.90
2023-04-29T07:09:00.524Z,21.88
2023-04-29T07:11:14.107Z,21.86
2023-04-29T07:13:26.628Z,21.82
2023-04-29T07:15:40.594Z,21.80
2023-04-29T07:17:53.483Z,21.78
2023-04-29T07:20:07.342Z,21.76
2023-04-29T07:22:19.772Z,21.75
2023-04-29T07:24:32.204Z,21.72
2023-04-29T07:26:46.134Z,21.69
2023-04-29T07:29:00.766Z,21.66
2023-04-29T07:31:15.422Z,21.63
2023-04-29T07:33:27.959Z,21.60
2023-04-29T07:35:42.712Z,21.57
2023-04-29T07:37:55.455Z,21.53
2023-04-29T07:40:08.882Z,21.49
2023-04-29T07:42:24.145Z,21.45
2023-04-29T07:44:44.260Z,21.39
2023-04-29T07:46:57.162Z,21.35
2023-04-29T07:49:10.045Z,21.31
2023-04-29T07:51:22.875Z,21.27
2023-04-29T07:53:35.423Z,21.23
2023-04-29T07:55:48.605Z,21.17
2023-04-29T07:58:01.060Z,21.11
2023-04-29T08:00:16.201Z,21.06
2023-04-29T08:02:29.027Z,21.02
2023-04-29T08:04:45.317Z,20.96
2023-04-29T08:06:58.788Z,20.89
2023-04-29T08:09:11.885Z,20.84
2023-04-29T08:11:28.554Z,20.76
2023-04-29T08:13:41.223Z,20.71
2023-04-29T08:15:53.715Z,20.66
2023-04-29T08:18:07.075Z,20.61
2023-04-29T08:20:21.494Z,20.57
2023-04-29T08:22:34.119Z,20.52
2023-04-29T08:24:46.467Z,20.48
2023-04-29T08:27:00.329Z,20.46
2023-04-29T08:29:12.947Z,20.41
2023-04-29T08:31:27.113Z,20.40
2023-04-29T08:33:40.200Z,20.36
2023-04-29T08:35:52.799Z,20.34
2023-04-29T08:38:06.122Z,20.30
2023-04-29T08:40:19.477Z,20.27
2023-04-29T08:42:41.831Z,20.23
2023-04-29T08:44:55.656Z,20.19
2023-04-29T08:47:08.514Z,20.17
2023-04-29T08:49:21.596Z,20.14
2023-04-29T08:51:35.860Z,20.12
2023-04-29T08:53:48.695Z,20.10
2023-04-29T08:56:03.341Z,20.07
2023-04-29T08:58:16.816Z,20.03
2023-04-29T09:00:30.845Z,20.00
2023-04-29T09:02:50.815Z,19.97
2023-04-29T09:05:12.257Z,19.92
2023-04-29T09:07:25.411Z,19.88
2023-04-29T09:09:39.319Z,19.80
2023-04-29T09:11:51.679Z,19.76
2023-04-29T09:14:07.645Z,19.70
2023-04-29T09:16:23.083Z,19.67
2023-04-29T09:18:52.544Z,19.61
2023-04-29T09:21:16.116Z,19.53
2023-04-29T09:23:42.752Z,19.48
2023-04-29T09:26:02.978Z,19.45
2023-04-29T09:28:22.614Z,19.44
2023-04-29T09:30:35.076Z,19.42
2023-04-29T09:32:48.698Z,19.39
2023-04-29T09:35:01.219Z,19.37
2023-04-29T09:37:29.786Z,19.37
2023-04-29T09:39:46.101Z,19.37
2023-04-29T09:42:08.027Z,19.38
2023-04-29T09:44:18.098Z,19.36
2023-04-29T09:46:31.475Z,19.33
2023-04-29T09:48:44.492Z,19.31
2023-04-29T09:51:07.736Z,19.32
2023-04-29T09:53:34.094Z,19.32
2023-04-29T09:56:06.734Z,19.32
2023-04-29T09:58:38.277Z,19.29
2023-04-29T10:03:52.053Z,19.18
2023-04-29T10:06:05.615Z,19.13
2023-04-29T10:08:18.439Z,19.05
2023-04-29T10:10:32.437Z,19.00
2023-04-29T10:12:46.725Z,18.95
2023-04-29T10:15:06.541Z,18.88
2023-04-29T10:17:27.962Z,18.83
2023-04-29T10:19:56.626Z,18.74
2023-04-29T10:22:12.308Z,18.67
2023-04-29T10:24:27.569Z,18.61
2023-04-29T10:26:42.319Z,18.59
2023-04-29T10:28:58.416Z,18.55
2023-04-29T10:31:13.070Z,18.49
2023-04-29T10:33:26.895Z,18.46
2023-04-29T10:35:39.870Z,18.45
2023-04-29T10:37:53.963Z,18.40
2023-04-29T10:40:17.058Z,18.39
2023-04-29T10:42:46.220Z,18.36
2023-04-29T10:45:23.146Z,18.32
2023-04-29T10:47:37.721Z,18.25
2023-04-29T10:50:08.054Z,18.18
2023-04-29T10:52:22.878Z,18.13
2023-04-29T10:54:35.856Z,18.09
2023-04-29T10:56:51.376Z,18.05
2023-04-29T10:59:03.896Z,18.00
2023-04-29T11:01:18.049Z,17.94
2023-04-29T11:03:59.582Z,17.87
2023-04-29T11:06:17.714Z,17.78
2023-04-29T11:08:30.325Z,17.70
2023-04-29T11:10:46.999Z,17.65
2023-04-29T11:13:26.915Z,17.61
2023-04-29T11:15:41.531Z,17.60
2023-04-29T11:17:53.938Z,17.57
2023-04-29T11:20:07.164Z,17.55
2023-04-29T11:22:28.797Z,17.52
2023-04-29T11:24:51.498Z,17.48
2023-04-29T11:27:08.374Z,17.44
2023-04-29T11:29:21.594Z,17.41
2023-04-29T11:31:38.991Z,17.39
2023-04-29T11:33:52.904Z,17.37
2023-04-29T11:36:05.192Z,17.37
2023-04-29T11:38:17.946Z,17.35
2023-04-29T11:40:30.509Z,17.34
2023-04-29T11:42:47.557Z,17.31
2023-04-29T11:45:01.538Z,17.28
2023-04-29T11:47:15.036Z,17.24
2023-04-29T11:49:34.945Z,17.19
2023-04-29T11:51:47.316Z,17.10
2023-04-29T11:54:00.738Z,17.04
2023-04-29T11:56:14.273Z,16.96
2023-04-29T11:58:27.144Z,16.87
2023-04-29T12:00:39.786Z,16.80
2023-04-29T12:02:52.700Z,16.73
2023-04-29T12:05:09.429Z,16.67
2023-04-29T12:07:23.165Z,16.64
2023-04-29T12:09:46.450Z,16.63
2023-04-29T12:11:59.027Z,16.61
2023-04-29T12:14:11.834Z,16.59
2023-04-29T12:16:25.316Z,16.57
2023-04-29T12:18:37.939Z,16.57
2023-04-29T12:20:52.574Z,16.54
2023-04-29T12:23:19.865Z,16.54
2023-04-29T12:25:35.679Z,16.52
2023-04-29T12:27:48.393Z,16.50
2023-04-29T12:30:02.551Z,16.45
2023-04-29T12:32:25.381Z,16.40
2023-04-29T12:34:39.013Z,16.37
2023-04-29T12:36:51.689Z,16.34
2023-04-29T12:39:04.916Z,16.30
2023-04-29T12:41:18.645Z,16.25
2023-04-29T12:43:34.916Z,16.19
2023-04-29T12:45:48.052Z,16.13
2023-04-29T12:48:02.502Z,16.11
2023-04-29T12:50:17.394Z,16.09
2023-04-29T12:52:30.250Z,16.06
2023-04-29T12:54:44.561Z,16.04
2023-04-29T12:56:57.517Z,16.01
2023-04-29T12:59:14.276Z,15.99
2023-04-29T13:01:27.287Z,15.98
2023-04-29T13:03:40.145Z,15.97
2023-04-29T13:05:55.088Z,15.93
2023-04-29T13:08:08.563Z,15.95
2023-04-29T13:10:21.032Z,15.94
2023-04-29T13:12:33.542Z,15.91
2023-04-29T13:14:45.915Z,15.92
2023-04-29T13:16:58.603Z,15.92
2023-04-29T13:19:28.212Z,15.92
2023-04-29T13:21:44.106Z,15.89
2023-04-29T13:23:57.037Z,15.89
2023-04-29T13:26:10.865Z,15.88
2023-04-29T13:28:23.504Z,15.87
2023-04-29T13:30:36.721Z,15.85
2023-04-29T13:32:54.730Z,15.83
2023-04-29T13:35:12.805Z,15.77
2023-04-29T13:37:25.401Z,15.77
2023-04-29T13:39:38.560Z,15.75
2023-04-29T13:41:51.034Z,15.77
2023-04-29T13:44:04.927Z,15.75
2023-04-29T13:46:20.947Z,15.70
2023-04-29T13:51:16.947Z,15.68
2023-04-29T13:53:57.008Z,15.68
2023-04-29T13:58:56.133Z,15.69
2023-04-29T14:01:16.991Z,15.69
2023-04-29T14:03:21.166Z,15.70
2023-04-29T14:05:33.928Z,15.71
2023-04-29T14:07:46.518Z,15.72
2023-04-29T14:09:59.598Z,15.72
2023-04-29T14:12:12.690Z,15.74
2023-04-29T14:14:25.564Z,15.76
2023-04-29T14:16:37.940Z,15.78
2023-04-29T14:18:50.336Z,15.92
2023-04-29T14:21:03.437Z,16.34
2023-04-29T14:23:15.742Z,16.79
2023-04-29T14:25:29.136Z,16.97
2023-04-29T14:27:42.045Z,17.08
2023-04-29T14:29:54.992Z,17.11
2023-04-29T14:32:08.630Z,17.12
2023-04-29T14:34:22.222Z,17.10
2023-04-29T14:36:35.535Z,17.07
2023-04-29T14:38:48.180Z,17.06
2023-04-29T14:41:00.940Z,17.10
2023-04-29T14:43:13.456Z,17.16
2023-04-29T14:45:26.560Z,17.25
2023-04-29T14:47:39.884Z,17.33
2023-04-29T14:49:52.279Z,17.40
2023-04-29T14:52:05.796Z,17.48
2023-04-29T14:54:18.350Z,17.59
2023-04-29T14:56:30.999Z,17.72
2023-04-29T14:58:44.128Z,17.87
2023-04-29T15:00:57.251Z,18.05
2023-04-29T15:03:10.877Z,18.29
2023-04-29T15:05:23.888Z,18.58
2023-04-29T15:07:37.016Z,18.93
2023-04-29T15:09:49.498Z,19.42
2023-04-29T15:12:02.195Z,20.15
2023-04-29T15:14:15.350Z,20.90
2023-04-29T15:16:29.677Z,21.55
2023-04-29T15:18:44.190Z,22.01
2023-04-29T15:20:58.910Z,22.34
2023-04-29T15:23:12.322Z,22.72
2023-04-29T15:25:26.657Z,23.11
2023-04-29T15:27:40.876Z,23.50
2023-04-29T15:29:55.503Z,23.88
2023-04-29T15:32:08.010Z,24.23
2023-04-29T15:34:20.902Z,24.53
2023-04-29T15:36:38.134Z,24.78
2023-04-29T15:38:50.715Z,24.95
2023-04-29T15:41:05.057Z,25.02
2023-04-29T15:43:17.584Z,25.09
2023-04-29T15:45:30.250Z,25.08
2023-04-29T15:47:42.781Z,25.11
2023-04-29T15:49:57.163Z,25.18
2023-04-29T15:52:10.437Z,25.22
2023-04-29T15:54:22.868Z,25.29
2023-04-29T15:56:35.773Z,25.36
2023-04-29T15:58:48.137Z,25.42
2023-04-29T16:01:00.762Z,25.46
2023-04-29T16:03:13.625Z,25.50
2023-04-29T16:05:26.908Z,25.55
2023-04-29T16:07:39.966Z,25.55
2023-04-29T16:09:52.710Z,25.58
2023-04-29T16:12:06.071Z,25.61
2023-04-29T16:14:18.446Z,25.62
2023-04-29T16:16:30.944Z,25.62
2023-04-29T16:18:43.474Z,25.59
2023-04-29T16:20:55.849Z,25.59
2023-04-29T16:23:08.489Z,25.59
2023-04-29T16:25:21.206Z,25.60
2023-04-29T16:27:33.847Z,25.63
2023-04-29T16:29:46.466Z,25.65
2023-04-29T16:31:59.031Z,25.67
2023-04-29T16:34:11.722Z,25.70
2023-04-29T16:36:24.927Z,25.74
2023-04-29T16:38:37.471Z,25.78
2023-04-29T16:40:50.834Z,25.78
2023-04-29T16:43:06.520Z,25.82
2023-04-29T16:45:21.079Z,25.78
2023-04-29T16:47:36.420Z,25.75
2023-04-29T16:49:49.628Z,25.71
2023-04-29T16:52:02.289Z,25.69
2023-04-29T16:54:14.661Z,25.72
2023-04-29T16:56:27.464Z,25.75
2023-04-29T16:58:40.145Z,25.77
2023-04-29T17:00:52.639Z,25.83
2023-04-29T17:03:05.486Z,25.94
2023-04-29T17:05:19.830Z,25.97
2023-04-29T17:07:33.573Z,26.01
2023-04-29T17:09:48.240Z,26.03
2023-04-29T17:12:00.794Z,26.08
2023-04-29T17:14:13.228Z,26.11
2023-04-29T17:16:27.327Z,26.11
2023-04-29T17:18:39.907Z,26.11
2023-04-29T17:20:52.935Z,26.15
2023-04-29T17:23:05.673Z,26.21
2023-04-29T17:25:19.062Z,26.29
2023-04-29T17:27:32.108Z,26.33
2023-04-29T17:29:45.024Z,26.41
2023-04-29T17:32:01.069Z,26.50
2023-04-29T17:34:19.443Z,26.60
2023-04-29T17:36:32.227Z,26.60
2023-04-29T17:38:45.568Z,26.64
2023-04-29T17:40:58.324Z,26.71
2023-04-29T17:43:10.794Z,26.83
2023-04-29T17:45:23.328Z,26.96
2023-04-29T17:47:36.573Z,27.03
2023-04-29T17:49:49.877Z,27.13
2023-04-29T17:52:05.066Z,27.27
2023-04-29T17:54:17.599Z,27.36
2023-04-29T17:56:30.406Z,27.46
2023-04-29T17:58:42.734Z,27.57
2023-04-29T18:00:57.055Z,27.58
2023-04-29T18:03:11.073Z,27.62
2023-04-29T18:05:23.651Z,27.70
2023-04-29T18:07:36.170Z,27.84
2023-04-29T18:09:49.503Z,28.00
2023-04-29T18:12:03.143Z,28.03
2023-04-29T18:14:16.044Z,28.06
2023-04-29T18:16:29.067Z,28.06
2023-04-29T18:18:41.794Z,28.15
2023-04-29T18:20:54.351Z,28.25
2023-04-29T18:23:07.042Z,28.31
2023-04-29T18:25:20.522Z,28.23
2023-04-29T18:27:33.096Z,28.18
2023-04-29T18:29:45.569Z,28.29
2023-04-29T18:31:58.172Z,28.38
2023-04-29T18:34:10.790Z,28.46
2023-04-29T18:36:24.757Z,28.56
2023-04-29T18:38:37.201Z,28.44
2023-04-29T18:40:51.241Z,28.42
2023-04-29T18:43:03.758Z,28.47
2023-04-29T18:45:17.157Z,28.58
2023-04-29T18:47:29.730Z,28.60
2023-04-29T18:49:42.633Z,28.58
2023-04-29T18:51:54.967Z,28.68
2023-04-29T18:54:07.642Z,28.74
2023-04-29T18:56:21.338Z,28.80
2023-04-29T18:58:33.829Z,28.84
2023-04-29T19:00:46.458Z,28.90
2023-04-29T19:02:59.271Z,28.94
2023-04-29T19:05:13.912Z,28.86
2023-04-29T19:07:26.577Z,28.86
2023-04-29T19:09:39.403Z,28.81
2023-04-29T19:11:52.639Z,28.81
2023-04-29T19:14:05.799Z,28.86
2023-04-29T19:16:18.173Z,29.01
2023-04-29T19:18:30.597Z,29.10
2023-04-29T19:20:43.728Z,29.12
2023-04-29T19:22:56.586Z,29.08
2023-04-29T19:25:09.477Z,29.03
2023-04-29T19:27:22.314Z,29.06
2023-04-29T19:29:34.723Z,29.11
2023-04-29T19:31:47.322Z,29.24
2023-04-29T19:33:59.704Z,29.36
2023-04-29T19:36:13.899Z,29.39
2023-04-29T19:38:26.774Z,29.38
2023-04-29T19:40:39.415Z,29.35
2023-04-29T19:42:52.681Z,29.32
2023-04-29T19:45:06.097Z,29.35
2023-04-29T19:47:18.393Z,29.39
2023-04-29T19:49:31.460Z,29.42
2023-04-29T19:51:44.680Z,29.34
2023-04-29T19:53:59.046Z,29.33
2023-04-29T19:56:11.753Z,29.50
2023-04-29T19:58:28.883Z,29.72
2023-04-29T20:00:41.681Z,29.80
2023-04-29T20:02:54.539Z,29.71
2023-04-29T20:05:07.630Z,29.76
2023-04-29T20:07:19.982Z,29.93
2023-04-29T20:09:32.966Z,30.01
2023-04-29T20:11:45.571Z,29.99
2023-04-29T20:13:58.318Z,29.94
2023-04-29T20:16:12.287Z,29.97
2023-04-29T20:18:24.717Z,29.94
2023-04-29T20:20:37.274Z,29.93
2023-04-29T20:22:50.127Z,30.02
2023-04-29T20:25:03.474Z,30.07
2023-04-29T20:27:15.997Z,30.00
2023-04-29T20:29:28.636Z,30.01
2023-04-29T20:31:41.279Z,30.07
2023-04-29T20:33:54.751Z,30.14
2023-04-29T20:36:08.498Z,30.15
2023-04-29T20:38:22.437Z,30.08
2023-04-29T20:40:35.709Z,30.12
2023-04-29T20:42:48.140Z,30.17
2023-04-29T20:45:01.001Z,30.24
2023-04-29T20:47:13.558Z,30.37
2023-04-29T20:49:26.013Z,30.51
2023-04-29T20:51:38.441Z,30.62
2023-04-29T20:53:51.099Z,30.68
2023-04-29T20:56:03.755Z,30.63
2023-04-29T20:58:17.423Z,30.50
2023-04-29T21:00:30.101Z,30.31
2023-04-29T21:02:43.070Z,30.31
2023-04-29T21:04:55.552Z,30.40
2023-04-29T21:07:11.244Z,30.47
2023-04-29T21:09:24.264Z,30.62
2023-04-29T21:11:37.121Z,30.67
2023-04-29T21:13:51.376Z,30.64
2023-04-29T21:16:04.427Z,30.65
2023-04-29T21:18:16.999Z,30.55
2023-04-29T21:20:31.308Z,30.51
2023-04-29T21:22:43.845Z,30.46
2023-04-29T21:24:56.336Z,30.44
2023-04-29T21:27:08.971Z,30.43
2023-04-29T21:29:21.591Z,30.40
2023-04-29T21:31:35.959Z,30.39
2023-04-29T21:33:48.568Z,30.40
2023-04-29T21:36:01.062Z,30.35
2023-04-29T21:38:13.756Z,30.37
2023-04-29T21:40:27.581Z,30.43
2023-04-29T21:42:40.479Z,30.48
2023-04-29T21:44:52.883Z,30.49
2023-04-29T21:47:06.078Z,30.51
2023-04-29T21:49:18.622Z,30.56
2023-04-29T21:51:32.825Z,30.53
2023-04-29T21:53:45.562Z,30.54
2023-04-29T21:55:57.948Z,30.52
2023-04-29T21:58:11.086Z,30.49
2023-04-29T22:00:31.813Z,30.34
2023-04-29T22:02:44.563Z,30.28
2023-04-29T22:04:58.291Z,30.27
2023-04-29T22:07:11.259Z,30.24
2023-04-29T22:09:23.806Z,30.23
2023-04-29T22:11:36.530Z,30.29
2023-04-29T22:13:49.098Z,30.34
2023-04-29T22:16:01.501Z,30.38
2023-04-29T22:18:14.901Z,30.41
2023-04-29T22:20:27.829Z,30.48
2023-04-29T22:22:40.211Z,30.51
2023-04-29T22:24:52.936Z,30.46
2023-04-29T22:27:05.542Z,30.39
2023-04-29T22:29:17.885Z,30.31
2023-04-29T22:31:30.415Z,30.29
2023-04-29T22:33:43.281Z,30.30
2023-04-29T22:35:55.847Z,30.30
2023-04-29T22:38:08.343Z,30.31
2023-04-29T22:40:21.159Z,30.35
2023-04-29T22:42:33.512Z,30.40
2023-04-29T22:44:46.120Z,30.38
2023-04-29T22:46:58.420Z,30.32
2023-04-29T22:49:11.376Z,30.31
2023-04-29T22:51:23.841Z,30.31
2023-04-29T22:53:36.670Z,30.32
2023-04-29T22:55:55.335Z,30.33
2023-04-29T22:58:08.033Z,30.35
2023-04-29T23:00:21.904Z,30.37
2023-04-29T23:02:34.371Z,30.39
2023-04-29T23:04:47.072Z,30.40
2023-04-29T23:06:59.447Z,30.43
2023-04-29T23:09:12.844Z,30.43
2023-04-29T23:11:25.237Z,30.38
2023-04-29T23:13:37.917Z,30.33
2023-04-29T23:15:50.750Z,30.25
2023-04-29T23:18:03.728Z,30.22
2023-04-29T23:20:19.393Z,30.26
2023-04-29T23:22:32.204Z,30.29
2023-04-29T23:24:44.855Z,30.31
2023-04-29T23:26:57.282Z,30.32
2023-04-29T23:29:09.815Z,30.35
2023-04-29T23:31:22.211Z,30.37
2023-04-29T23:33:34.988Z,30.37
2023-04-29T23:35:50.737Z,30.36
2023-04-29T23:38:03.184Z,30.36
2023-04-29T23:40:17.377Z,30.34
2023-04-29T23:42:29.980Z,30.30
2023-04-29T23:44:42.645Z,30.28
2023-04-29T23:46:55.007Z,30.27
2023-04-29T23:49:07.419Z,30.29
2023-04-29T23:51:20.608Z,30.32
2023-04-29T23:53:33.404Z,30.33
2023-04-29T23:55:45.884Z,30.32
2023-04-29T23:57:58.193Z,30.33
